Rose Creek, MN (55970)

3:47 AM CDT on April 21, 2015 (GMT -0500)
IEM | | Change Station
CLOSE
Current Station
Personal Weather Station
Location: Le Roy, MN
Elevation: 1290 ft
Nearby Weather Stations
Active Advisory: Wind Advisory

Elev 1290 ft 43.51 °N, 92.51 °W | Updated 18 minutes ago

Overcast
Overcast
36 °F
Feels Like 29 °F
N
9
Wind Variable Wind from SW
Gusts 0.0 mph

Today
High -- | Low -- °F
--% Chance of Precip.
Yesterday
High -- | Low -- °F
Precip. -- in
6:18 AM 8:01 PM
Waxing Crescent, 9% visible
Pressure 29.58 in
Visibility 10.0 miles
Clouds Overcast 4200 ft
Windchill 29 °F
Dew Point 28 °F
Humidity 75%
Rainfall in
Snow Depth Not available.
UV 0 out of 12
Pollen 11.00 out of 12
Air Quality Not available.
Flu Activity Local Activity
METAR KAUM 210836Z AUTO 29016G23KT 10SM OVC042 02/M02 A2958 RMK AO2

More Conditions Fewer Conditions

Pressure 29.58 in
Visibility 10.0 miles
Clouds Overcast 4200 ft
Windchill 29 °F
Dew Point 28 °F
Humidity 75%
Rainfall in
Snow Depth Not available.
UV 0 out of 12
Pollen 11.00 out of 12
Air Quality Not available.
Flu Activity Local Activity
METAR KAUM 210836Z AUTO 29016G23KT 10SM OVC042 02/M02 A2958 RMK AO2

More Conditions Fewer Conditions

10-Day Weather Forecast

Almanac

Astronomy

Apr. 21, 2015 Rise Set
Actual Time
Civil Twilight
Nautical Twilight
Astronomical Twilight
Moon
Length of Visible Light
Length of Day
Tomorrow will be .
, % of the Moon is Illuminated

Today's Extremes

State Highs State Lows

Community

WunderPhotos

Upload Photos

1,815,329 photos uploaded!

WunderBlogs® & News

Nearby

Air Quality

  Air Quality AQ Index Pollutant
Not available.

Snow Depth

Station Depth Elevation

Earthquake Activity

City Distance Mag. Time & Date
Minimum magnitude displayed is 2.5.

Coastal Water Temperatures

Place Temperature

Stations

Nearby Weather Stations

Station Location Temp. Windchill Dew Point Humidity Wind Precip. Elev Updated Type
                   
Wind Advisory
Statement as of 3:44 AM CDT on April 21, 2015

... Wind Advisory in effect from noon today to 6 PM CDT this
evening...

The National Weather Service in La Crosse has issued a Wind
Advisory... which is in effect from noon today to 6 PM CDT this
evening.

* Northwest winds will increase to 25 to 30 mph by early this
afternoon. Gusts of 40 to 45 mph are expected. Look for the
winds to subside to 20 to 30 mph late this afternoon.

* Strong winds can make driving difficult... especially for high
profile vehicles.

Precautionary/preparedness actions...

A Wind Advisory means that sustained winds of 30 mph or higher...
or gusts over 45 mph... are expected. Use extra caution if you are
driving a high profile vehicle.



Wetenkamp